Flight Track Log - Related Links

Times and Time Zones

All times are in EDT time to prevent confusion due to time zone crossing. See the N799J flight status page for this flight to view local times or setup timezone preferences in your user account.

Time Position Orientation Groundspeed Altitude Reporting Facility
EDT Latitude Longitude Course Direction KTS MPH feet Rate Location/Type
Mon 01:02:47 PM 41.4311 -72.6625 359° North 140 161 4,500  Level Boston Center
Mon 01:02:50 PM 41.4322 -72.6650 301° West 139 160 4,600  Climbing Boston Center
Mon 01:03:47 PM 41.4647 -72.6886 331° Northwest 139 160 4,500 -100 Descending Boston Center
Mon 01:03:50 PM 41.4681 -72.6897 346° North 135 155 4,500  Level Boston Center
Mon 01:04:54 PM 41.5022 -72.7136 332° Northwest 137 158 4,500  Level Boston Center
Mon 01:05:48 PM 41.5331 -72.7361 331° Northwest 138 159 4,500  Level Boston Center
Mon 01:05:54 PM 41.5364 -72.7372 346° North 138 159 4,500  Level Boston Center
Mon 01:06:00 PM 41.3721 -73.1215 North  Level FlightAware Approximate
Mon 01:06:54 PM 41.5711 -72.7611 333° Northwest 141 162 4,500  Level Boston Center
Mon 01:07:00 PM 41.4068 -73.1207 North  Level FlightAware Approximate
Mon 01:07:37 PM 41.5956 -72.7786 332° Northwest 139 160 4,500  Level Boston Center
Mon 01:07:58 PM 41.6083 -72.7878 332° Northwest 141 162 4,500  Level Boston Center
Mon 01:08:00 PM 41.4416 -73.1210 359° North  Level Estimated
Mon 01:08:55 PM 41.6428 -72.8128 332° Northwest 141 162 4,500  Level Boston Center
Mon 01:08:58 PM 41.6436 -72.8122 26° Northeast 142 163 4,500  Level Boston Center
Mon 01:09:56 PM 41.6767 -72.8364 331° Northwest 141 162 4,500  Level Boston Center
Mon 01:09:59 PM 41.6778 -72.8356 29° Northeast 139 160 4,500  Level Boston Center
Mon 01:11:02 PM 41.7167 -72.8603 335° Northwest 143 165 4,500  Level Boston Center
Mon 01:12:00 PM 41.7472 -72.8822 332° Northwest 138 159 4,500  Level Boston Center
Mon 01:12:03 PM 41.7506 -72.8825 356° North 137 158 4,500  Level Boston Center
Mon 01:13:00 PM 41.7794 -72.9053 330° Northwest 133 153 4,500  Level Boston Center
Mon 01:13:03 PM 41.7839 -72.9053 360° North 135 155 4,500  Level Boston Center
Mon 01:14:01 PM 41.8114 -72.9283 328° Northwest 135 155 4,500  Level Boston Center
Mon 01:14:07 PM 41.8186 -72.9333 333° Northwest 137 158 4,500  Level Boston Center
Mon 01:15:08 PM 41.8528 -72.9583 331° Northwest 138 159 4,500  Level Boston Center
Mon 01:16:08 PM 41.8839 -72.9864 326° Northwest 138 159 4,500  Level Boston Center
Mon 01:17:09 PM 41.9178 -73.0103 332° Northwest 136 157 4,500  Level Boston Center
Mon 01:17:12 PM 41.9186 -73.0083 60° Northeast 135 155 4,500  Level Boston Center
Mon 01:18:12 PM 41.9558 -73.0342 333° Northwest 140 161 4,500  Level Boston Center
Mon 01:18:52 PM 41.9764 -73.0519 327° Northwest 140 161 4,500  Level Boston Center
Mon 01:19:13 PM 41.9903 -73.0589 340° North 140 161 4,500  Level Boston Center
Mon 01:20:16 PM 42.0231 -73.0825 332° Northwest 134 154 4,500  Level Boston Center
Mon 01:21:11 PM 42.0514 -73.1083 326° Northwest 137 158 4,500  Level Boston Center
Mon 01:21:17 PM 42.0581 -73.1119 338° Northwest 138 159 4,500  Level Boston Center
Mon 01:21:59 PM 42.0786 -73.1328 323° Northwest 135 155 4,500  Level Boston Center
Mon 01:22:17 PM 42.0903 -73.1392 338° Northwest 135 155 4,500  Level Boston Center
Mon 01:23:00 PM 42.1128 -73.1569 330° Northwest 138 159 4,500  Level Boston Center
Mon 01:23:18 PM 42.1239 -73.1639 335° Northwest 138 159 4,500 109 Level Boston Center
Mon 01:23:55 PM 42.1428 -73.1797 328° Northwest 134 154 4,600 188 Climbing Boston Center
Mon 01:24:22 PM 42.1558 -73.1889 333° Northwest 134 154 4,700  Climbing Boston Center
Mon 01:24:55 PM 42.1731 -73.2058 324° Northwest 134 154 4,600 -200 Descending Boston Center
Mon 01:25:22 PM 42.1917 -73.2164 337° Northwest 139 160 4,500 -138 Descending Boston Center
Mon 01:26:22 PM 42.2264 -73.2433 330° Northwest 143 165 4,400 -94 Descending Boston Center
Mon 01:26:26 PM 42.2258 -73.2461 255° West 145 167 4,400 188 Level Boston Center
Mon 01:27:26 PM 42.2578 -73.2708 330° Northwest 133 153 4,600 100 Climbing Boston Center
Mon 01:28:26 PM 42.2947 -73.2956 334° Northwest 140 161 4,600 -50 Level Boston Center
Mon 01:29:27 PM 42.3253 -73.3247 325° Northwest 144 166 4,500 -58 Descending Boston Center
Mon 01:30:09 PM 42.3497 -73.3442 330° Northwest 140 161 4,500  Level Boston Center
Mon 01:30:30 PM 42.3628 -73.3506 340° North 139 160 4,500  Level Boston Center
Mon 01:31:28 PM 42.3933 -73.3758 329° Northwest 135 155 4,500  Level Boston Center
Mon 01:31:31 PM 42.3950 -73.3769 334° Northwest 136 157 4,500 98 Level Boston Center
Mon 01:32:29 PM 42.4272 -73.4017 330° Northwest 136 157 4,600 98 Climbing Boston Center
Mon 01:32:32 PM 42.4306 -73.4031 343° North 135 155 4,600  Level Boston Center
Mon 01:33:24 PM 42.4578 -73.4233 331° Northwest 139 160 4,600  Level Boston Center
Mon 01:33:33 PM 42.4653 -73.4283 334° Northwest 141 162 4,600 100 Level Boston Center
Mon 01:34:24 PM 42.4917 -73.4489 330° Northwest 138 159 4,700 190 Climbing Boston Center
Mon 01:34:36 PM 42.4981 -73.4514 344° North 135 155 4,800 493 Climbing Boston Center
Mon 01:35:37 PM 42.5339 -73.4464 North 129 148 5,300 440 Climbing Boston Center
Mon 01:36:25 PM 42.5614 -73.4431 North 127 146 5,600 300 Climbing Boston Center
Mon 01:36:37 PM 42.5722 -73.4411 North 129 148 5,600  Level Boston Center
Mon 01:37:26 PM 42.5994 -73.4353 North 141 162 5,600  Level Boston Center
Mon 01:37:38 PM 42.6114 -73.4328 North 141 162 5,600  Level Boston Center
Mon 01:38:27 PM 42.6411 -73.4289 North 150 173 5,600  Level Boston Center
Mon 01:38:39 PM 42.6528 -73.4294 358° North 148 170 5,600  Level Boston Center
Mon 01:39:34 PM 42.6892 -73.4244 North 150 173 5,600  Level Boston Center
Mon 01:39:43 PM 42.6969 -73.4217 15° North 149 171 5,600  Level Boston Center
Mon 01:40:34 PM 42.7292 -73.4172 North 147 169 5,600  Level Boston Center
Mon 01:40:43 PM 42.7372 -73.4158 North 146 168 5,600  Level Boston Center
Mon 01:41:17 PM 42.7581 -73.4122 North 148 170 5,600  Level Boston Center
Mon 01:41:44 PM 42.7789 -73.4111 North 149 171 5,600  Level Boston Center
Mon 01:42:17 PM 42.7994 -73.4083 North 149 171 5,600  Level Boston Center
Mon 01:42:45 PM 42.8222 -73.4053 North 147 169 5,600  Level Boston Center
Mon 01:43:37 PM 42.8564 -73.4011 North 148 170 5,600  Level Boston Center
Mon 01:43:46 PM 42.8633 -73.4017 357° North 148 170 5,600  Level Boston Center
Mon 01:44:20 PM 42.8828 -73.3981 North 144 166 5,600  Level Boston Center
Mon 01:44:47 PM 42.9031 -73.3975 North 144 166 5,600  Level Boston Center
Mon 01:45:20 PM 42.9242 -73.3944 North 145 167 5,600  Level Boston Center
Mon 01:45:50 PM 42.9467 -73.3928 North 146 168 5,600  Level Boston Center
Mon 01:46:27 PM 42.9675 -73.3914 North 145 167 5,600 98 Level Boston Center
Mon 01:46:51 PM 42.9867 -73.3906 North 145 167 5,700 100 Climbing Boston Center
Mon 01:47:27 PM 43.0111 -73.3883 North 146 168 5,700  Level Boston Center
Mon 01:47:51 PM 43.0272 -73.3858 North 146 168 5,700  Level Boston Center
Mon 01:48:21 PM 43.0483 -73.3831 North 146 168 5,700  Level Boston Center
Mon 01:48:55 PM 43.0675 -73.3817 North 146 168 5,700 -82 Level Boston Center
Mon 01:49:34 PM 43.0950 -73.3753 10° North 146 168 5,600 -100 Descending Boston Center
Mon 01:49:55 PM 43.1100 -73.3747 North 144 166 5,600  Level Boston Center
Mon 01:50:55 PM 43.1500 -73.3703 North 143 165 5,600  Level Boston Center
Mon 01:51:59 PM 43.1908 -73.3642 North 147 169 5,600  Level Boston Center
Mon 01:53:00 PM 43.2361 -73.3586 North 151 174 5,600  Level Boston Center
Mon 01:54:00 PM 43.2769 -73.3533 North 149 171 5,600  Level Boston Center
Mon 01:55:01 PM 43.3175 -73.3478 North 147 169 5,600  Level Boston Center
Mon 01:56:04 PM 43.3583 -73.3431 North 148 170 5,600  Level Boston Center
Mon 01:57:04 PM 43.3994 -73.3383 North 148 170 5,600  Level Boston Center
Mon 01:58:05 PM 43.4381 -73.3342 North 146 168 5,600  Level Boston Center
Mon 01:59:09 PM 43.4789 -73.3289 North 147 169 5,600  Level Boston Center
Mon 02:00:09 PM 43.5286 -73.3214 North 149 171 5,600  Level Boston Center
Mon 02:01:09 PM 43.5694 -73.3150 North 147 169 5,600  Level Boston Center
Mon 02:02:13 PM 43.6114 -73.3064 North 150 173 5,600  Level Boston Center
Mon 02:03:13 PM 43.6525 -73.2969 North 150 173 5,600 -50 Level Boston Center
Mon 02:04:14 PM 43.6969 -73.2933 North 152 175 5,500 -48 Descending Boston Center
Mon 02:05:17 PM 43.7414 -73.2839 North 150 173 5,500  Level Boston Center
Mon 02:06:18 PM 43.7828 -73.2758 North 151 174 5,500  Level Boston Center
Mon 02:07:18 PM 43.8247 -73.2683 North 152 175 5,500  Level Boston Center
Mon 02:08:20 PM 43.8681 -73.2603 North 147 169 5,500  Level Boston Center
Mon 02:09:21 PM 43.9092 -73.2533 North 149 171 5,500  Level Boston Center
Mon 02:10:21 PM 43.9531 -73.2447 North 151 174 5,500 -149 Level Boston Center
Mon 02:11:22 PM 43.9958 -73.2383 North 155 178 5,200 -293 Descending Boston Center
Mon 02:12:24 PM 44.0369 -73.2317 North 151 174 4,900 -336 Descending Boston Center
Mon 02:13:27 PM 44.0819 -73.2242 North 152 175 4,500 -387 Descending Boston Center
Mon 02:14:28 PM 44.1242 -73.2206 North 154 177 4,100 -443 Descending Boston Center
Mon 02:15:29 PM 44.1700 -73.2158 North 153 176 3,600 -435 Descending Boston Center
Mon 02:16:32 PM 44.2128 -73.2111 North 156 180 3,200 -390 Descending Boston Center
Mon 02:17:32 PM 44.2550 -73.2036 North 154 177 2,800 -397 Descending Boston Center
Mon 02:18:33 PM 44.3014 -73.1958 North 156 180 2,400 -387 Descending Boston Center
Mon 02:19:36 PM 44.3442 -73.1894 North 156 180 2,000 -387 Descending Boston Center
Mon 02:20:37 PM 44.3892 -73.1900 359° North 151 174 1,600 -149 Descending Boston Center
Mon 02:21:37 PM 44.4250 -73.2031 345° North 136 157 1,700 -49 Climbing Boston Center
Mon 02:22:40 PM 44.4611 -73.2108 351° North 132 152 1,500 -341 Descending Boston Center
Mon 02:23:40 PM 44.4900 -73.1886 29° Northeast 115 132 1,000 -397 Descending Boston Center
Mon 02:24:41 PM 44.4856 -73.1597 102° East 77 89 700 -336 Descending Boston Center
Mon 02:25:45 PM 44.4711 -73.1517 158° South 57 66 300 -375 Descending Boston Center

Login

Don't have an account? Register now (free) for customized features, flight alerts, and more!